createdAt,value
2023-01-09T01:19:47.671Z,99364.59
2023-01-09T01:26:23.880Z,99357.78
2023-01-09T01:29:14.960Z,99347.94
2023-01-09T01:31:58.123Z,99353.53
2023-01-09T01:34:38.887Z,99345.88
2023-01-09T01:41:16.493Z,99351.28
2023-01-09T01:44:58.791Z,99345.22
2023-01-09T01:48:14.499Z,99348.63
2023-01-09T01:54:05.603Z,99343.66
2023-01-09T01:57:08.486Z,99331.13
2023-01-09T02:00:19.711Z,99326.16
2023-01-09T02:02:55.662Z,99313.44
2023-01-09T02:05:48.127Z,99318.78
2023-01-09T02:08:30.329Z,99313.06
2023-01-09T02:11:13.219Z,99305.84
2023-01-09T02:13:42.124Z,99306.91
2023-01-09T02:17:14.728Z,99301.59
2023-01-09T02:20:15.368Z,99301.72
2023-01-09T02:23:35.872Z,99305.00
2023-01-09T02:27:36.712Z,99307.50
2023-01-09T02:31:27.884Z,99306.38
2023-01-09T02:42:47.366Z,99313.44
2023-01-09T02:45:30.267Z,99303.31
2023-01-09T02:45:47.322Z,99309.94
2023-01-09T02:48:03.041Z,99309.34
2023-01-09T02:51:08.892Z,99308.75
2023-01-09T02:54:38.002Z,99306.88
2023-01-09T02:58:22.389Z,99306.28
2023-01-09T03:01:20.616Z,99297.63
2023-01-09T03:04:27.765Z,99293.84
2023-01-09T03:07:34.961Z,99293.28
2023-01-09T03:10:41.410Z,99291.28
2023-01-09T03:13:16.154Z,99287.38
2023-01-09T03:15:50.850Z,99279.66
2023-01-09T03:18:40.345Z,99288.69
2023-01-09T03:21:30.859Z,99288.09
2023-01-09T03:24:02.421Z,99278.75
2023-01-09T03:26:31.161Z,99277.13
2023-01-09T03:29:17.198Z,99274.84
2023-01-09T03:31:48.023Z,99273.09
2023-01-09T03:34:30.901Z,99263.28
2023-01-09T03:37:05.172Z,99272.13
2023-01-09T03:40:02.294Z,99264.22
2023-01-09T03:42:39.755Z,99254.13
2023-01-09T03:45:08.888Z,99252.88
2023-01-09T03:47:38.777Z,99249.38
2023-01-09T03:50:07.916Z,99253.22
2023-01-09T03:52:50.652Z,99248.50
2023-01-09T03:55:48.619Z,99246.00
2023-01-09T03:58:28.307Z,99246.41
2023-01-09T04:05:12.648Z,99242.38
2023-01-09T04:07:52.470Z,99239.91
2023-01-09T04:10:23.354Z,99234.94
2023-01-09T04:12:54.057Z,99239.78
2023-01-09T04:15:27.724Z,99234.38
2023-01-09T04:18:03.944Z,99233.53
2023-01-09T04:20:32.620Z,99233.13
2023-01-09T04:23:03.022Z,99230.63
2023-01-09T04:25:30.499Z,99231.78
2023-01-09T04:28:00.937Z,99228.78
2023-01-09T04:30:31.522Z,99228.34
2023-01-09T04:32:59.015Z,99212.56
2023-01-09T04:35:26.482Z,99212.44
2023-01-09T04:38:04.428Z,99216.91
2023-01-09T04:40:31.891Z,99209.88
2023-01-09T04:43:05.343Z,99210.81
2023-01-09T04:45:41.512Z,99208.06
2023-01-09T04:48:10.740Z,99206.78
2023-01-09T04:50:38.686Z,99207.91
2023-01-09T04:53:08.730Z,99198.09
2023-01-09T04:55:36.279Z,99200.56
2023-01-09T04:58:03.859Z,99199.97
2023-01-09T05:00:31.614Z,99193.75
2023-01-09T05:02:59.497Z,99191.84
2023-01-09T05:05:33.512Z,99184.66
2023-01-09T05:08:00.804Z,99193.94
2023-01-09T05:10:28.406Z,99184.59
2023-01-09T05:12:59.032Z,99181.69
2023-01-09T05:15:28.305Z,99181.56
2023-01-09T05:17:58.073Z,99187.06
2023-01-09T05:20:51.570Z,99188.50
2023-01-09T05:23:19.033Z,99186.84
2023-01-09T05:25:46.457Z,99192.03
2023-01-09T05:28:19.733Z,99195.06
2023-01-09T05:30:53.869Z,99184.63
2023-01-09T05:33:21.780Z,99184.63
2023-01-09T05:35:49.702Z,99183.03
2023-01-09T05:38:19.291Z,99181.00
2023-01-09T05:40:47.021Z,99174.59
2023-01-09T05:43:20.471Z,99177.91
2023-01-09T05:45:48.217Z,99179.25
2023-01-09T05:48:24.988Z,99175.34
2023-01-09T05:50:52.421Z,99169.03
2023-01-09T05:53:19.943Z,99168.56
2023-01-09T05:55:47.243Z,99169.63
2023-01-09T05:58:14.677Z,99161.25
2023-01-09T06:00:42.213Z,99179.38
2023-01-09T06:03:09.540Z,99162.44
2023-01-09T06:05:36.962Z,99171.50
2023-01-09T06:08:04.310Z,99165.75
2023-01-09T06:10:31.450Z,99167.50
2023-01-09T06:12:58.777Z,99167.84
2023-01-09T06:15:26.343Z,99158.19
2023-01-09T06:17:53.618Z,99161.72
2023-01-09T06:20:21.889Z,99155.38
2023-01-09T06:22:51.931Z,99158.66
2023-01-09T06:25:19.409Z,99163.16
2023-01-09T06:27:47.052Z,99161.50
2023-01-09T06:30:14.584Z,99156.19
2023-01-09T06:32:50.773Z,99158.22
2023-01-09T06:35:21.021Z,99151.97
2023-01-09T06:37:49.865Z,99149.72
2023-01-09T06:40:20.160Z,99149.84
2023-01-09T06:42:59.341Z,99141.47
2023-01-09T06:45:26.610Z,99149.28
2023-01-09T06:48:01.225Z,99144.31
2023-01-09T06:50:28.575Z,99143.16
2023-01-09T06:52:58.831Z,99135.59
2023-01-09T06:55:26.491Z,99140.06
2023-01-09T06:57:54.496Z,99142.69
2023-01-09T07:00:22.531Z,99134.69
2023-01-09T07:02:49.935Z,99134.06
2023-01-09T07:05:17.394Z,99139.97
2023-01-09T07:07:44.879Z,99136.56
2023-01-09T07:10:12.539Z,99130.66
2023-01-09T07:12:39.698Z,99129.94
2023-01-09T07:15:07.973Z,99132.91
2023-01-09T07:17:35.302Z,99116.03
2023-01-09T07:20:06.173Z,99123.13
2023-01-09T07:22:36.447Z,99118.53
2023-01-09T07:25:03.789Z,99118.72
2023-01-09T07:27:31.080Z,99119.34
2023-01-09T07:29:58.781Z,99114.38
2023-01-09T07:32:25.886Z,99117.09
2023-01-09T07:34:53.185Z,99110.81
2023-01-09T07:37:20.462Z,99127.81
2023-01-09T07:39:47.551Z,99123.09
2023-01-09T07:42:15.040Z,99133.00
2023-01-09T07:44:42.095Z,99121.22
2023-01-09T07:47:09.229Z,99127.94
2023-01-09T07:49:36.790Z,99135.91
2023-01-09T07:52:04.884Z,99131.91
2023-01-09T07:54:32.089Z,99131.09
2023-01-09T07:56:59.347Z,99136.72
2023-01-09T07:59:28.847Z,99135.69
2023-01-09T08:01:58.911Z,99141.59
2023-01-09T08:04:26.057Z,99147.78
2023-01-09T08:06:53.221Z,99141.81
2023-01-09T08:09:20.326Z,99149.44
2023-01-09T08:11:47.668Z,99154.19
2023-01-09T08:14:14.969Z,99148.88
2023-01-09T08:16:43.905Z,99140.63
2023-01-09T08:19:12.358Z,99145.66
2023-01-09T08:21:40.324Z,99147.94
2023-01-09T08:24:09.332Z,99144.22
2023-01-09T08:26:36.474Z,99146.97
2023-01-09T08:29:03.720Z,99142.03
2023-01-09T08:31:30.871Z,99142.81
2023-01-09T08:33:58.000Z,99145.34
2023-01-09T08:36:25.245Z,99150.13
2023-01-09T08:38:52.460Z,99140.34
2023-01-09T08:41:38.171Z,99149.28
2023-01-09T08:44:23.695Z,99145.44
2023-01-09T08:47:06.139Z,99145.84
2023-01-09T08:49:39.154Z,99149.63
2023-01-09T08:52:07.807Z,99150.78
2023-01-09T08:54:39.931Z,99145.63
2023-01-09T08:57:08.193Z,99149.97
2023-01-09T08:59:35.362Z,99158.28
2023-01-09T09:02:02.479Z,99164.34
2023-01-09T09:04:29.696Z,99172.81
2023-01-09T09:06:56.750Z,99172.91
2023-01-09T09:09:25.745Z,99167.00
2023-01-09T09:11:53.069Z,99175.50
2023-01-09T09:14:38.507Z,99173.59
2023-01-09T09:17:05.559Z,99176.66
2023-01-09T09:19:32.782Z,99182.31
2023-01-09T09:22:00.900Z,99176.44
2023-01-09T09:24:27.918Z,99166.72
2023-01-09T09:26:54.931Z,99159.63
2023-01-09T09:29:22.045Z,99167.41
2023-01-09T09:31:49.221Z,99181.81
2023-01-09T09:34:16.345Z,99180.38
2023-01-09T09:36:43.517Z,99179.56
2023-01-09T09:39:10.646Z,99186.72
2023-01-09T09:42:19.626Z,99194.06
2023-01-09T09:45:11.604Z,99191.66
2023-01-09T09:48:17.130Z,99186.22
2023-01-09T09:51:32.747Z,99187.25
2023-01-09T09:54:31.530Z,99188.19
2023-01-09T09:57:04.325Z,99191.56
2023-01-09T09:59:38.785Z,99185.81
2023-01-09T10:02:47.364Z,99195.19
2023-01-09T10:06:05.352Z,99194.47
2023-01-09T10:09:17.324Z,99194.94
2023-01-09T10:12:04.027Z,99197.13
2023-01-09T10:14:31.735Z,99193.59
2023-01-09T10:17:32.818Z,99200.19
2023-01-09T10:20:21.836Z,99197.75
2023-01-09T10:23:22.573Z,99202.47
2023-01-09T10:26:30.531Z,99202.63
2023-01-09T10:29:52.541Z,99192.03
2023-01-09T10:32:35.852Z,99195.59
2023-01-09T10:35:23.221Z,99198.22
2023-01-09T10:37:53.616Z,99212.84
2023-01-09T10:40:47.211Z,99214.09
2023-01-09T10:43:55.307Z,99219.31
2023-01-09T10:46:47.374Z,99227.81
2023-01-09T10:49:18.840Z,99216.53
2023-01-09T10:52:21.049Z,99222.91
2023-01-09T10:55:19.382Z,99216.38
2023-01-09T10:57:54.143Z,99214.31
2023-01-09T11:00:24.698Z,99226.44
2023-01-09T11:02:53.480Z,99232.97
2023-01-09T11:05:34.068Z,99240.50
2023-01-09T11:08:11.581Z,99230.53
2023-01-09T11:10:55.082Z,99241.31
2023-01-09T11:13:34.813Z,99246.66
2023-01-09T11:16:11.007Z,99250.66
2023-01-09T11:19:01.002Z,99246.69
2023-01-09T11:21:40.489Z,99244.66
2023-01-09T11:24:21.317Z,99239.75
2023-01-09T11:26:54.783Z,99249.41
2023-01-09T11:29:27.050Z,99252.22
2023-01-09T11:32:00.135Z,99258.66
2023-01-09T11:34:36.415Z,99262.75
2023-01-09T11:37:18.934Z,99263.56
2023-01-09T11:39:48.185Z,99261.94
2023-01-09T11:42:44.576Z,99269.03
2023-01-09T11:45:32.790Z,99274.81
2023-01-09T11:48:01.474Z,99273.16
2023-01-09T11:50:31.947Z,99277.25
2023-01-09T11:53:21.807Z,99275.06
2023-01-09T11:56:01.820Z,99281.94
2023-01-09T11:58:35.638Z,99278.66
2023-01-09T12:01:47.837Z,99279.47
2023-01-09T12:04:47.182Z,99286.88
2023-01-09T12:07:54.386Z,99289.72
2023-01-09T12:11:12.984Z,99298.25
2023-01-09T12:14:34.868Z,99299.22
2023-01-09T12:18:12.928Z,99298.72
2023-01-09T12:21:08.283Z,99293.78
2023-01-09T12:24:18.594Z,99294.63
2023-01-09T12:27:22.926Z,99309.59
2023-01-09T12:30:21.977Z,99321.31
2023-01-09T12:33:45.001Z,99317.19
2023-01-09T12:37:01.803Z,99314.75
2023-01-09T12:40:05.626Z,99307.91
2023-01-09T12:43:09.548Z,99314.75
2023-01-09T12:46:00.198Z,99313.63
2023-01-09T12:49:24.641Z,99320.34
2023-01-09T12:52:24.550Z,99322.19
2023-01-09T12:55:00.026Z,99319.81
2023-01-09T12:57:49.052Z,99326.81
2023-01-09T13:00:32.636Z,99328.56
2023-01-09T13:03:30.091Z,99316.69
2023-01-09T13:05:58.617Z,99316.69
2023-01-09T13:09:05.646Z,99319.56
2023-01-09T13:12:03.318Z,99332.59
2023-01-09T13:15:18.482Z,99337.53
2023-01-09T13:17:57.208Z,99331.22
2023-01-09T13:20:38.837Z,99336.56
2023-01-09T13:23:09.213Z,99347.66
2023-01-09T13:25:46.944Z,99348.63
2023-01-09T13:28:34.320Z,99347.81
2023-01-09T13:31:33.798Z,99343.41
2023-01-09T13:34:04.600Z,99344.53
2023-01-09T13:36:39.843Z,99336.72
2023-01-09T13:39:07.478Z,99336.31
2023-01-09T13:42:12.247Z,99341.78
2023-01-09T13:44:40.039Z,99342.06
2023-01-09T13:47:30.773Z,99341.78
2023-01-09T13:50:26.733Z,99339.91
2023-01-09T13:52:54.127Z,99350.78
2023-01-09T13:55:24.943Z,99350.56
2023-01-09T13:58:08.636Z,99352.22
2023-01-09T14:00:35.599Z,99363.84
2023-01-09T14:03:38.452Z,99368.75
2023-01-09T14:06:16.174Z,99370.91
2023-01-09T14:08:45.389Z,99387.19
2023-01-09T14:11:25.961Z,99391.13
2023-01-09T14:14:01.606Z,99401.13
2023-01-09T14:16:30.740Z,99405.28
2023-01-09T14:19:36.070Z,99413.47
2023-01-09T14:22:05.587Z,99422.16
2023-01-09T14:24:47.123Z,99429.13
2023-01-09T14:27:54.689Z,99432.31
2023-01-09T14:30:27.991Z,99432.72
2023-01-09T14:33:17.323Z,99435.69
2023-01-09T14:36:14.983Z,99434.28
2023-01-09T14:38:50.806Z,99437.59
2023-01-09T14:42:02.472Z,99436.06
2023-01-09T14:44:52.213Z,99437.28
2023-01-09T14:47:48.111Z,99449.03
2023-01-09T14:50:46.400Z,99464.41
2023-01-09T14:53:30.780Z,99461.53
2023-01-09T14:56:01.835Z,99469.34
2023-01-09T14:58:34.869Z,99472.91
2023-01-09T15:01:25.501Z,99469.34
2023-01-09T15:04:02.864Z,99470.66
2023-01-09T15:06:41.614Z,99465.13
2023-01-09T15:09:45.922Z,99473.66
2023-01-09T15:12:23.135Z,99470.34
2023-01-09T15:14:59.452Z,99475.69
2023-01-09T15:17:35.596Z,99493.75
2023-01-09T15:20:06.538Z,99485.94
2023-01-09T15:22:37.621Z,99486.78
2023-01-09T15:25:39.989Z,99490.91
2023-01-09T15:28:34.872Z,99494.47
2023-01-09T15:31:11.539Z,99491.16
2023-01-09T15:33:40.908Z,99504.16
2023-01-09T15:36:25.409Z,99504.03
2023-01-09T15:38:54.084Z,99505.56
2023-01-09T15:41:50.629Z,99506.75
2023-01-09T15:44:37.555Z,99507.75
2023-01-09T15:47:35.046Z,99508.47
2023-01-09T15:50:04.959Z,99515.31
2023-01-09T15:52:51.942Z,99518.88
2023-01-09T15:55:38.218Z,99516.28
2023-01-09T15:59:09.516Z,99521.47
2023-01-09T16:02:06.952Z,99532.72
2023-01-09T16:04:53.843Z,99539.84
2023-01-09T16:07:27.188Z,99538.84
2023-01-09T16:10:36.857Z,99554.66
2023-01-09T16:13:05.125Z,99549.28
2023-01-09T16:15:46.618Z,99544.44
2023-01-09T16:18:56.147Z,99547.41
2023-01-09T16:21:51.782Z,99547.41
2023-01-09T16:24:25.746Z,99552.97
2023-01-09T16:27:33.972Z,99559.84
2023-01-09T16:30:27.753Z,99554.16
2023-01-09T16:32:57.723Z,99550.84
2023-01-09T16:35:26.474Z,99548.81
2023-01-09T16:37:53.759Z,99546.19
2023-01-09T16:40:27.122Z,99545.75
2023-01-09T16:43:05.640Z,99555.44
2023-01-09T16:45:40.273Z,99561.00
2023-01-09T16:48:22.014Z,99562.06
2023-01-09T16:50:52.469Z,99569.19
2023-01-09T16:53:28.644Z,99567.16
2023-01-09T16:55:59.119Z,99576.97
2023-01-09T16:58:45.329Z,99575.06
2023-01-09T17:01:18.957Z,99581.34
2023-01-09T17:03:48.023Z,99583.72
2023-01-09T17:06:33.655Z,99585.03
2023-01-09T17:09:01.545Z,99571.06
2023-01-09T17:11:32.651Z,99569.69
2023-01-09T17:14:04.128Z,99568.38
2023-01-09T17:16:42.760Z,99575.94
2023-01-09T17:19:20.340Z,99571.91
2023-01-09T17:21:47.884Z,99567.31
2023-01-09T17:24:34.350Z,99573.44
2023-01-09T17:27:21.515Z,99574.59
2023-01-09T17:29:59.434Z,99579.56
2023-01-09T17:32:30.776Z,99577.91
2023-01-09T17:34:58.364Z,99575.88
2023-01-09T17:37:31.244Z,99580.97
2023-01-09T17:40:05.929Z,99580.03
2023-01-09T17:42:33.501Z,99569.66
2023-01-09T17:45:22.170Z,99575.44
2023-01-09T17:47:51.024Z,99579.47
2023-01-09T17:50:23.350Z,99594.88
2023-01-09T17:53:06.109Z,99597.47
2023-01-09T17:55:39.018Z,99593.94
2023-01-09T17:58:32.901Z,99600.78
2023-01-09T18:01:06.210Z,99608.84
2023-01-09T18:06:33.106Z,99611.91
2023-01-09T18:09:04.712Z,99607.53
2023-01-09T18:12:38.536Z,99616.03
2023-01-09T18:15:12.030Z,99609.19
2023-01-09T18:21:25.508Z,99621.56
2023-01-09T18:23:58.565Z,99621.13
2023-01-09T18:27:22.810Z,99628.78
2023-01-09T18:30:33.311Z,99637.16
2023-01-09T18:33:37.234Z,99637.97
2023-01-09T18:37:11.126Z,99634.47
2023-01-09T18:40:29.791Z,99645.47
2023-01-09T18:43:24.975Z,99642.75
2023-01-09T18:45:56.657Z,99650.41
2023-01-09T18:48:32.952Z,99653.75
2023-01-09T18:51:08.514Z,99656.34
2023-01-09T18:53:44.228Z,99658.00
2023-01-09T18:56:18.664Z,99665.91
2023-01-09T18:58:51.309Z,99668.38
2023-01-09T19:01:19.621Z,99674.97
2023-01-09T19:04:04.052Z,99683.59
2023-01-09T19:06:59.885Z,99685.84
2023-01-09T19:09:27.438Z,99679.50
2023-01-09T19:11:55.187Z,99683.25
2023-01-09T19:14:28.209Z,99691.06
2023-01-09T19:17:41.549Z,99693.53
2023-01-09T19:20:16.152Z,99698.38
2023-01-09T19:23:20.736Z,99708.19
2023-01-09T19:26:40.463Z,99704.06
2023-01-09T19:29:17.737Z,99703.00
2023-01-09T19:32:47.679Z,99710.69
2023-01-09T19:35:36.517Z,99714.44
2023-01-09T19:38:35.123Z,99707.59
2023-01-09T19:41:20.581Z,99705.00
2023-01-09T19:47:41.251Z,99705.50
2023-01-09T19:50:33.980Z,99708.09
2023-01-09T20:00:23.913Z,99712.56
2023-01-09T20:03:09.747Z,99710.44
2023-01-09T20:05:43.003Z,99714.00
2023-01-09T20:08:13.472Z,99723.69
2023-01-09T20:10:46.808Z,99728.38
2023-01-09T20:13:28.503Z,99726.03
2023-01-09T20:16:20.391Z,99727.09
2023-01-09T20:19:02.853Z,99729.53
2023-01-09T20:21:54.843Z,99742.09
2023-01-09T20:25:01.110Z,99737.50
2023-01-09T20:28:01.450Z,99743.41
2023-01-09T20:35:22.108Z,99746.81
2023-01-09T20:36:40.041Z,99746.81
2023-01-09T20:53:11.834Z,99760.28
2023-01-09T20:55:38.933Z,99768.56
2023-01-09T20:58:31.550Z,99763.47
2023-01-09T21:07:42.662Z,99788.03
2023-01-09T21:10:13.458Z,99793.44
2023-01-09T21:13:07.917Z,99800.31
2023-01-09T21:16:01.351Z,99804.44
2023-01-09T21:18:29.543Z,99799.84
2023-01-09T21:21:38.370Z,99815.34
2023-01-09T21:24:12.262Z,99818.59
2023-01-09T21:29:31.976Z,99828.56
2023-01-09T21:31:59.898Z,99836.00
2023-01-09T21:34:32.899Z,99840.97
2023-01-09T21:37:00.529Z,99842.53
2023-01-09T21:39:33.461Z,99845.00
2023-01-09T21:42:29.113Z,99843.03
2023-01-09T21:45:33.081Z,99851.97
2023-01-09T21:48:06.943Z,99848.44
2023-01-09T21:50:35.751Z,99853.16
2023-01-09T21:53:06.964Z,99861.22
2023-01-09T21:55:35.215Z,99866.53
2023-01-09T21:58:03.534Z,99868.06
2023-01-09T22:00:41.689Z,99878.31
2023-01-09T22:03:21.996Z,99889.56
2023-01-09T22:05:51.838Z,99882.84
2023-01-09T22:08:19.322Z,99895.94
2023-01-09T22:10:55.929Z,99898.53
2023-01-09T22:13:23.363Z,99908.94
2023-01-09T22:15:50.624Z,99913.06
2023-01-09T22:18:20.800Z,99919.81
2023-01-09T22:20:50.049Z,99916.16
2023-01-09T22:23:20.042Z,99919.09
2023-01-09T22:25:47.563Z,99919.69
2023-01-09T22:28:15.060Z,99930.91
2023-01-09T22:30:43.130Z,99934.69
2023-01-09T22:33:11.294Z,99934.69
2023-01-09T22:35:43.822Z,99944.84
2023-01-09T22:38:12.904Z,99948.41
2023-01-09T22:40:41.492Z,99954.44
2023-01-09T22:43:14.280Z,99952.19
2023-01-09T22:45:41.488Z,99956.91
2023-01-09T22:48:09.046Z,99957.13
2023-01-09T22:50:37.498Z,99951.94
2023-01-09T22:53:04.965Z,99957.38
2023-01-09T22:55:32.128Z,99962.34
2023-01-09T22:57:59.269Z,99967.53
2023-01-09T23:00:26.274Z,99966.94
2023-01-09T23:02:53.544Z,99980.41
2023-01-09T23:05:20.768Z,99984.06
2023-01-09T23:07:47.867Z,99984.78
2023-01-09T23:10:15.789Z,99988.84
2023-01-09T23:12:47.595Z,99994.13
2023-01-09T23:15:14.800Z,99993.31
2023-01-09T23:17:41.871Z,99988.22
2023-01-09T23:20:10.163Z,99994.13
2023-01-09T23:22:37.337Z,99997.88
2023-01-09T23:25:05.327Z,99997.06
2023-01-09T23:27:32.390Z,99997.72
2023-01-09T23:30:00.229Z,99999.19
2023-01-09T23:32:27.243Z,100018.00
2023-01-09T23:34:55.355Z,100017.63
2023-01-09T23:37:22.428Z,100022.66
2023-01-09T23:39:49.682Z,100019.34
2023-01-09T23:42:35.808Z,100024.13
2023-01-09T23:45:03.314Z,100028.91
2023-01-09T23:47:30.523Z,100040.03
2023-01-09T23:49:57.960Z,100041.59
2023-01-09T23:52:25.166Z,100035.56
2023-01-09T23:54:53.931Z,100044.91
2023-01-09T23:57:21.320Z,100043.25
2023-01-09T23:59:49.749Z,100048.66
